createdAt,value
2019-04-26T00:00:08.838Z,99.90
2019-04-26T00:02:49.243Z,99.90
2019-04-26T00:05:17.251Z,99.90
2019-04-26T00:07:45.332Z,99.90
2019-04-26T00:10:23.261Z,99.90
2019-04-26T00:13:11.606Z,99.90
2019-04-26T00:15:54.088Z,99.90
2019-04-26T00:18:21.799Z,99.90
2019-04-26T00:20:49.519Z,99.90
2019-04-26T00:23:18.234Z,99.90
2019-04-26T00:25:45.992Z,99.90
2019-04-26T00:28:14.476Z,99.90
2019-04-26T00:30:42.569Z,99.90
2019-04-26T00:33:11.929Z,99.90
2019-04-26T00:35:47.284Z,99.90
2019-04-26T00:38:09.529Z,99.90
2019-04-26T00:40:38.160Z,99.90
2019-04-26T00:43:06.125Z,99.90
2019-04-26T00:45:35.827Z,99.90
2019-04-26T00:48:04.225Z,99.90
2019-04-26T00:50:33.044Z,99.90
2019-04-26T00:53:02.843Z,99.90
2019-04-26T00:55:32.383Z,99.90
2019-04-26T00:58:01.099Z,99.90
2019-04-26T01:00:28.776Z,99.90
2019-04-26T01:02:57.872Z,99.90
2019-04-26T01:05:28.927Z,99.90
2019-04-26T01:07:57.393Z,99.90
2019-04-26T01:10:25.833Z,99.90
2019-04-26T01:12:53.923Z,99.90
2019-04-26T01:15:22.088Z,99.90
2019-04-26T01:17:51.270Z,99.90
2019-04-26T01:20:22.835Z,99.90
2019-04-26T01:22:53.398Z,99.90
2019-04-26T01:25:56.528Z,99.90
2019-04-26T01:28:38.999Z,99.90
2019-04-26T01:31:07.536Z,99.90
2019-04-26T01:33:37.244Z,99.90
2019-04-26T01:36:12.818Z,99.90
2019-04-26T01:38:35.424Z,99.90
2019-04-26T01:41:07.623Z,99.90
2019-04-26T01:44:10.985Z,99.90
2019-04-26T01:46:42.507Z,99.90
2019-04-26T01:49:12.076Z,99.90
2019-04-26T01:51:47.059Z,99.90
2019-04-26T01:54:18.636Z,99.90
2019-04-26T01:56:49.226Z,99.90
2019-04-26T01:59:18.746Z,99.90
2019-04-26T02:02:06.199Z,99.90
2019-04-26T02:04:36.484Z,99.90
2019-04-26T02:07:04.737Z,99.90
2019-04-26T02:09:32.742Z,99.90
2019-04-26T02:12:01.210Z,99.90
2019-04-26T02:14:29.463Z,99.90
2019-04-26T02:16:58.165Z,99.90
2019-04-26T02:19:26.039Z,99.90
2019-04-26T02:22:04.009Z,99.90
2019-04-26T02:24:40.375Z,99.90
2019-04-26T02:27:34.540Z,99.90
2019-04-26T02:30:05.020Z,99.90
2019-04-26T02:32:34.429Z,99.90
2019-04-26T02:35:02.616Z,99.90
2019-04-26T02:37:32.255Z,99.90
2019-04-26T02:40:01.265Z,99.90
2019-04-26T02:42:40.101Z,99.90
2019-04-26T02:45:34.763Z,99.90
2019-04-26T02:48:37.974Z,99.90
2019-04-26T02:51:11.612Z,99.90
2019-04-26T02:53:54.504Z,99.90
2019-04-26T02:56:30.364Z,99.90
2019-04-26T02:59:26.424Z,99.90
2019-04-26T03:01:57.161Z,99.90
2019-04-26T03:04:30.178Z,99.90
2019-04-26T03:07:03.700Z,99.90
2019-04-26T03:09:34.990Z,99.90
2019-04-26T03:12:18.861Z,99.90
2019-04-26T03:15:16.983Z,99.90
2019-04-26T03:18:15.341Z,99.90
2019-04-26T03:20:46.661Z,99.90
2019-04-26T03:23:53.307Z,99.90
2019-04-26T03:26:43.889Z,99.90
2019-04-26T03:29:44.464Z,99.90
2019-04-26T03:32:40.398Z,99.90
2019-04-26T03:35:54.872Z,99.90
2019-04-26T03:38:39.411Z,99.90
2019-04-26T03:41:25.885Z,99.90
2019-04-26T03:44:06.577Z,99.90
2019-04-26T03:46:50.893Z,99.90
2019-04-26T03:49:45.778Z,99.90
2019-04-26T03:52:35.303Z,99.90
2019-04-26T03:55:07.688Z,99.90
2019-04-26T03:57:50.126Z,99.90
2019-04-26T04:00:43.551Z,99.90
2019-04-26T04:03:43.091Z,99.90
2019-04-26T04:06:15.503Z,99.90
2019-04-26T04:08:52.120Z,99.90
2019-04-26T04:11:24.728Z,99.90
2019-04-26T04:14:01.206Z,99.90
2019-04-26T04:16:48.854Z,99.90
2019-04-26T04:19:34.237Z,99.90
2019-04-26T04:22:06.422Z,99.90
2019-04-26T04:24:42.667Z,99.90
2019-04-26T04:27:51.335Z,99.90
2019-04-26T04:30:30.121Z,99.90
2019-04-26T04:33:36.084Z,99.90
2019-04-26T04:36:14.726Z,99.90
2019-04-26T04:39:12.540Z,99.90
2019-04-26T04:41:59.318Z,99.90
2019-04-26T04:45:02.628Z,99.90
2019-04-26T04:47:45.970Z,99.90
2019-04-26T04:50:31.778Z,99.90
2019-04-26T04:53:09.077Z,99.90
2019-04-26T04:56:03.142Z,99.90
2019-04-26T04:58:39.667Z,99.90
2019-04-26T05:01:57.087Z,99.90
2019-04-26T05:04:33.151Z,99.90
2019-04-26T05:07:29.895Z,99.90
2019-04-26T05:10:47.630Z,99.90
2019-04-26T05:13:33.065Z,99.90
2019-04-26T05:16:40.342Z,99.90
2019-04-26T05:20:00.709Z,99.90
2019-04-26T05:23:16.885Z,99.90
2019-04-26T05:26:33.967Z,99.90
2019-04-26T05:29:47.854Z,99.90
2019-04-26T05:33:09.060Z,99.90
2019-04-26T05:36:04.571Z,99.90
2019-04-26T05:38:57.723Z,99.90
2019-04-26T05:41:38.530Z,99.90
2019-04-26T05:44:27.703Z,99.90
2019-04-26T05:47:28.345Z,99.90
2019-04-26T05:50:24.717Z,99.90
2019-04-26T05:54:11.085Z,99.90
2019-04-26T05:56:52.715Z,99.90
2019-04-26T05:59:42.614Z,99.90
2019-04-26T06:03:21.354Z,99.90
2019-04-26T06:06:30.054Z,99.90
2019-04-26T06:09:30.530Z,99.90
2019-04-26T06:12:24.546Z,99.90
2019-04-26T06:15:43.616Z,99.90
2019-04-26T06:18:43.227Z,99.90
2019-04-26T06:21:52.193Z,99.90
2019-04-26T06:25:23.033Z,99.90
2019-04-26T06:28:05.328Z,99.90
2019-04-26T06:31:10.008Z,99.90
2019-04-26T06:34:09.297Z,99.90
2019-04-26T06:37:16.350Z,99.90
2019-04-26T06:39:54.662Z,99.90
2019-04-26T06:43:06.650Z,99.90
2019-04-26T06:46:11.663Z,99.70
2019-04-26T06:49:22.033Z,99.10
2019-04-26T06:51:57.101Z,97.90
2019-04-26T06:54:48.590Z,97.90
2019-04-26T06:58:17.022Z,96.70
2019-04-26T07:01:05.463Z,96.10
2019-04-26T07:04:21.164Z,94.40
2019-04-26T07:07:24.564Z,93.80
2019-04-26T07:10:15.367Z,93.40
2019-04-26T07:12:58.692Z,91.50
2019-04-26T07:16:21.882Z,89.90
2019-04-26T07:19:48.847Z,89.90
2019-04-26T07:22:50.467Z,91.30
2019-04-26T07:25:55.135Z,92.70
2019-04-26T07:28:49.202Z,91.60
2019-04-26T07:31:49.807Z,92.40
2019-04-26T07:34:39.200Z,93.80
2019-04-26T07:37:45.271Z,95.00
2019-04-26T07:41:01.481Z,95.20
2019-04-26T07:44:14.373Z,95.70
2019-04-26T07:47:15.455Z,95.50
2019-04-26T07:50:21.722Z,93.00
2019-04-26T07:53:13.426Z,92.80
2019-04-26T07:56:05.779Z,92.80
2019-04-26T07:59:30.065Z,91.80
2019-04-26T08:02:32.100Z,92.10
2019-04-26T08:05:09.532Z,90.80
2019-04-26T08:07:47.119Z,91.10
2019-04-26T08:10:18.684Z,90.20
2019-04-26T08:12:53.988Z,87.40
2019-04-26T08:15:51.998Z,87.50
2019-04-26T08:18:30.820Z,86.50
2019-04-26T08:21:18.140Z,86.10
2019-04-26T08:24:05.188Z,83.80
2019-04-26T08:26:37.511Z,83.40
2019-04-26T08:29:10.507Z,85.20
2019-04-26T08:31:40.783Z,86.50
2019-04-26T08:51:09.399Z,78.80
2019-04-26T08:53:40.763Z,85.90
2019-04-26T08:56:15.189Z,87.10
2019-04-26T08:58:45.914Z,88.90
2019-04-26T09:01:25.907Z,90.40
2019-04-26T09:04:03.914Z,91.00
2019-04-26T09:06:47.755Z,91.30
2019-04-26T09:09:22.992Z,91.30
2019-04-26T09:11:59.879Z,90.60
2019-04-26T09:14:28.784Z,88.60
2019-04-26T09:17:04.155Z,83.20
2019-04-26T09:19:32.207Z,79.40
2019-04-26T09:22:13.225Z,74.80
2019-04-26T09:24:47.215Z,74.20
2019-04-26T09:27:23.881Z,72.10
2019-04-26T09:30:33.132Z,71.30
2019-04-26T09:33:09.344Z,72.70
2019-04-26T09:35:37.209Z,75.40
2019-04-26T09:38:04.920Z,76.30
2019-04-26T09:40:32.627Z,73.80
2019-04-26T09:43:18.176Z,74.70
2019-04-26T09:46:11.357Z,76.80
2019-04-26T09:49:03.134Z,77.60
2019-04-26T09:51:34.880Z,79.70
2019-04-26T09:54:02.242Z,76.40
2019-04-26T09:56:30.067Z,74.70
2019-04-26T09:58:57.736Z,71.30
2019-04-26T10:01:26.016Z,72.50
2019-04-26T10:03:54.059Z,69.40
2019-04-26T10:06:21.838Z,70.20
2019-04-26T10:08:52.368Z,67.80
2019-04-26T10:11:21.855Z,67.30
2019-04-26T10:13:58.473Z,68.50
2019-04-26T10:16:42.165Z,68.70
2019-04-26T10:19:15.173Z,66.70
2019-04-26T10:21:45.818Z,64.30
2019-04-26T10:24:15.180Z,62.40
2019-04-26T10:26:42.927Z,62.20
2019-04-26T10:29:10.626Z,66.40
2019-04-26T10:31:39.090Z,63.50
2019-04-26T10:34:07.773Z,63.60
2019-04-26T10:36:37.353Z,63.00
2019-04-26T10:39:09.067Z,64.30
2019-04-26T10:41:36.804Z,65.00
2019-04-26T10:44:05.485Z,62.20
2019-04-26T10:46:33.285Z,61.10
2019-04-26T10:49:09.057Z,64.00
2019-04-26T10:51:41.829Z,65.40
2019-04-26T10:54:13.638Z,64.40
2019-04-26T10:56:57.965Z,65.10
2019-04-26T10:59:45.543Z,66.40
2019-04-26T11:02:17.528Z,65.40
2019-04-26T11:04:45.337Z,65.60
2019-04-26T11:07:13.059Z,64.80
2019-04-26T11:09:41.259Z,64.30
2019-04-26T11:12:12.653Z,68.10
2019-04-26T11:14:40.323Z,68.00
2019-04-26T11:17:11.477Z,70.90
2019-04-26T11:19:39.173Z,70.90
2019-04-26T11:22:06.948Z,72.30
2019-04-26T11:24:45.556Z,73.20
2019-04-26T11:27:13.359Z,72.00
2019-04-26T11:29:41.052Z,71.00
2019-04-26T11:32:09.802Z,71.80
2019-04-26T11:34:37.502Z,71.40
2019-04-26T11:37:05.870Z,73.00
2019-04-26T11:39:36.441Z,73.50
2019-04-26T11:42:03.597Z,72.50
2019-04-26T11:44:31.340Z,73.60
2019-04-26T11:46:59.319Z,78.90
2019-04-26T11:49:29.023Z,77.20
2019-04-26T11:52:04.323Z,77.70
2019-04-26T11:54:33.100Z,77.30
2019-04-26T11:57:00.836Z,75.50
2019-04-26T11:59:30.633Z,76.30
2019-04-26T12:01:58.853Z,77.00
2019-04-26T12:04:53.861Z,75.90
2019-04-26T12:07:24.735Z,74.30
2019-04-26T12:09:54.112Z,73.30
2019-04-26T12:12:21.837Z,74.70
2019-04-26T12:14:49.579Z,72.10
2019-04-26T12:17:17.260Z,72.60
2019-04-26T12:19:48.204Z,70.00
2019-04-26T12:22:14.483Z,73.10
2019-04-26T12:24:42.179Z,74.20
2019-04-26T12:27:10.390Z,70.50
2019-04-26T12:29:38.374Z,68.80
2019-04-26T12:32:06.078Z,67.30
2019-04-26T12:34:34.028Z,68.70
2019-04-26T12:37:01.953Z,72.30
2019-04-26T12:39:32.259Z,70.70
2019-04-26T12:41:59.725Z,71.80
2019-04-26T12:44:36.385Z,74.30
2019-04-26T12:47:34.621Z,75.30
2019-04-26T12:50:00.904Z,78.30
2019-04-26T12:52:28.716Z,92.60
2019-04-26T12:54:57.740Z,98.50
2019-04-26T12:57:25.754Z,99.90
2019-04-26T12:59:53.491Z,99.90
2019-04-26T13:02:21.956Z,99.90
2019-04-26T13:04:49.983Z,99.90
2019-04-26T13:07:23.869Z,99.90
2019-04-26T13:10:06.890Z,99.90
2019-04-26T13:12:54.326Z,99.90
2019-04-26T13:16:02.354Z,99.90
2019-04-26T13:18:30.223Z,99.90
2019-04-26T13:20:58.569Z,99.90
2019-04-26T13:23:29.957Z,99.90
2019-04-26T13:25:59.620Z,99.90
2019-04-26T13:28:26.863Z,99.90
2019-04-26T13:30:54.596Z,99.20
2019-04-26T13:33:23.288Z,99.90
2019-04-26T13:36:02.644Z,99.90
2019-04-26T13:38:22.292Z,99.90
2019-04-26T13:40:50.087Z,99.90
2019-04-26T13:43:17.807Z,97.20
2019-04-26T13:46:03.203Z,96.50
2019-04-26T13:48:43.427Z,96.20
2019-04-26T13:51:09.192Z,98.90
2019-04-26T13:53:37.231Z,96.10
2019-04-26T13:56:04.978Z,97.10
2019-04-26T13:58:32.691Z,96.60
2019-04-26T14:01:01.542Z,96.10
2019-04-26T14:03:31.653Z,96.50
2019-04-26T14:05:58.725Z,97.30
2019-04-26T14:08:26.399Z,97.40
2019-04-26T14:10:54.176Z,97.70
2019-04-26T14:13:25.082Z,99.90
2019-04-26T14:15:52.094Z,99.90
2019-04-26T14:18:20.061Z,99.90
2019-04-26T14:20:48.240Z,99.90
2019-04-26T14:23:38.005Z,99.90
2019-04-26T14:26:19.635Z,99.90
2019-04-26T14:28:47.691Z,99.90
2019-04-26T14:31:18.273Z,99.90
2019-04-26T14:33:46.170Z,99.90
2019-04-26T14:36:18.019Z,99.90
2019-04-26T14:39:05.025Z,99.90
2019-04-26T14:41:23.853Z,99.90
2019-04-26T14:43:52.673Z,99.90
2019-04-26T14:46:22.981Z,99.90
2019-04-26T14:49:01.405Z,99.90
2019-04-26T14:51:21.192Z,99.90
2019-04-26T14:53:49.702Z,98.70
2019-04-26T14:56:17.909Z,99.90
2019-04-26T14:58:45.671Z,99.90
2019-04-26T15:01:22.605Z,99.90
2019-04-26T15:04:09.731Z,99.00
2019-04-26T15:06:42.293Z,99.20
2019-04-26T15:09:18.114Z,99.90
2019-04-26T15:11:52.778Z,99.90
2019-04-26T15:14:12.726Z,99.20
2019-04-26T15:16:41.421Z,99.40
2019-04-26T15:19:09.940Z,98.60
2019-04-26T15:21:38.706Z,99.90
2019-04-26T15:24:06.427Z,99.80
2019-04-26T15:26:34.249Z,97.90
2019-04-26T15:29:02.523Z,98.20
2019-04-26T15:31:33.087Z,98.60
2019-04-26T15:34:03.233Z,98.60
2019-04-26T15:36:30.951Z,97.30
2019-04-26T15:38:59.936Z,97.20
2019-04-26T15:41:54.368Z,97.20
2019-04-26T15:44:39.925Z,95.90
2019-04-26T15:47:23.717Z,97.00
2019-04-26T15:49:57.894Z,95.70
2019-04-26T15:52:25.803Z,94.20
2019-04-26T15:54:58.906Z,93.10
2019-04-26T15:57:24.400Z,92.70
2019-04-26T15:59:54.336Z,92.30
2019-04-26T16:02:25.984Z,90.50
2019-04-26T16:04:54.351Z,90.40
2019-04-26T16:07:27.674Z,94.60
2019-04-26T16:09:55.882Z,94.80
2019-04-26T16:12:25.865Z,95.60
2019-04-26T16:14:52.067Z,96.90
2019-04-26T16:17:19.772Z,97.80
2019-04-26T16:19:47.455Z,98.40
2019-04-26T16:22:15.163Z,98.50
2019-04-26T16:24:43.455Z,99.50
2019-04-26T16:27:12.602Z,99.60
2019-04-26T16:30:06.044Z,98.40
2019-04-26T16:33:08.224Z,98.80
2019-04-26T16:35:36.380Z,98.90
2019-04-26T16:38:22.902Z,98.60
2019-04-26T16:40:53.446Z,99.00
2019-04-26T16:43:34.871Z,99.90
2019-04-26T16:45:49.728Z,99.90
2019-04-26T16:48:21.239Z,99.90
2019-04-26T16:50:47.008Z,99.90
2019-04-26T16:53:36.252Z,99.50
2019-04-26T16:55:52.291Z,99.50
2019-04-26T16:58:14.572Z,99.90
2019-04-26T17:00:51.740Z,99.90
2019-04-26T17:03:12.075Z,99.90
2019-04-26T17:05:48.381Z,99.90
2019-04-26T17:08:10.353Z,99.90
2019-04-26T17:10:38.748Z,99.90
2019-04-26T17:13:06.474Z,99.90
2019-04-26T17:15:34.496Z,99.90
2019-04-26T17:18:02.608Z,99.90
2019-04-26T17:20:33.946Z,99.90
2019-04-26T17:23:33.435Z,99.90
2019-04-26T17:26:29.334Z,99.90
2019-04-26T17:28:56.812Z,99.90
2019-04-26T17:31:24.492Z,99.90
2019-04-26T17:33:52.168Z,99.90
2019-04-26T17:36:19.869Z,99.90
2019-04-26T17:38:47.559Z,99.90
2019-04-26T17:41:15.607Z,99.90
2019-04-26T17:43:47.473Z,99.90
2019-04-26T17:46:14.490Z,99.90
2019-04-26T17:48:44.742Z,99.90
2019-04-26T17:51:18.781Z,99.90
2019-04-26T17:53:44.046Z,99.90
2019-04-26T17:56:13.407Z,99.90
2019-04-26T17:58:53.676Z,99.90
2019-04-26T18:01:12.117Z,99.90
2019-04-26T18:03:50.754Z,99.90
2019-04-26T18:06:14.027Z,99.90
2019-04-26T18:08:51.222Z,99.90
2019-04-26T18:11:18.894Z,99.90
2019-04-26T18:13:41.487Z,99.90
2019-04-26T18:16:09.166Z,99.90
2019-04-26T18:18:56.619Z,99.90
2019-04-26T18:21:59.883Z,99.90
2019-04-26T18:24:32.254Z,99.90
2019-04-26T18:26:59.273Z,99.90
2019-04-26T18:29:29.257Z,99.90
2019-04-26T18:31:59.118Z,99.90
2019-04-26T18:34:30.500Z,99.90
2019-04-26T18:36:57.469Z,99.90
2019-04-26T18:39:28.314Z,99.90
2019-04-26T18:41:58.326Z,99.90
2019-04-26T18:44:36.356Z,99.90
2019-04-26T18:47:06.291Z,99.90
2019-04-26T18:49:34.311Z,99.90
2019-04-26T18:52:03.768Z,99.90
2019-04-26T18:54:47.840Z,99.90
2019-04-26T18:57:17.244Z,99.90
2019-04-26T18:59:51.222Z,99.90
2019-04-26T19:02:18.755Z,99.90
2019-04-26T19:04:48.043Z,99.90
2019-04-26T19:07:17.249Z,99.90
2019-04-26T19:09:58.344Z,99.90
2019-04-26T19:12:18.409Z,99.90
2019-04-26T19:15:08.999Z,99.90
2019-04-26T19:17:44.189Z,99.90
2019-04-26T19:20:34.912Z,99.90
2019-04-26T19:23:05.231Z,99.90
2019-04-26T19:25:34.093Z,99.90
2019-04-26T19:28:07.821Z,99.90
2019-04-26T19:30:33.232Z,99.90
2019-04-26T19:33:02.040Z,99.90
2019-04-26T19:35:30.007Z,99.90
2019-04-26T19:37:57.766Z,99.90
2019-04-26T19:40:27.404Z,99.90
2019-04-26T19:42:57.515Z,99.90
2019-04-26T19:45:47.708Z,99.90
2019-04-26T19:48:26.530Z,99.90
2019-04-26T19:51:13.748Z,99.90
2019-04-26T19:53:53.040Z,99.90
2019-04-26T19:56:27.554Z,99.90
2019-04-26T19:58:57.456Z,99.90
2019-04-26T20:01:25.011Z,99.90
2019-04-26T20:03:55.296Z,99.90
2019-04-26T20:06:23.202Z,99.90
2019-04-26T20:08:51.920Z,99.90
2019-04-26T20:11:20.120Z,99.90
2019-04-26T20:13:53.532Z,99.90
2019-04-26T20:16:18.337Z,99.90
2019-04-26T20:18:46.090Z,99.90
2019-04-26T20:21:15.487Z,99.90
2019-04-26T20:23:47.385Z,99.90
2019-04-26T20:26:15.535Z,99.90
2019-04-26T20:28:43.274Z,99.90
2019-04-26T20:31:44.902Z,99.90
2019-04-26T20:34:10.961Z,99.90
2019-04-26T20:36:41.547Z,99.90
2019-04-26T20:39:09.048Z,99.90
2019-04-26T20:41:36.714Z,99.90
2019-04-26T20:44:09.473Z,99.90
2019-04-26T20:46:37.562Z,99.90
2019-04-26T20:49:07.829Z,99.90
2019-04-26T20:51:32.874Z,99.90
2019-04-26T20:54:02.013Z,99.90
2019-04-26T20:56:31.699Z,99.90
2019-04-26T20:59:01.406Z,99.90
2019-04-26T21:01:29.349Z,99.90
2019-04-26T21:03:57.047Z,99.90
2019-04-26T21:06:24.735Z,99.90
2019-04-26T21:08:54.174Z,99.90
2019-04-26T21:11:21.976Z,99.90
2019-04-26T21:13:49.627Z,99.90
2019-04-26T21:16:17.303Z,99.90
2019-04-26T21:18:44.993Z,99.90
2019-04-26T21:21:15.696Z,99.90
2019-04-26T21:23:43.884Z,99.90
2019-04-26T21:26:32.706Z,99.90
2019-04-26T21:29:34.919Z,99.90
2019-04-26T21:32:28.366Z,99.90
2019-04-26T21:34:56.274Z,99.90
2019-04-26T21:37:30.171Z,99.90
2019-04-26T21:40:35.498Z,99.90
2019-04-26T21:43:03.324Z,99.90
2019-04-26T21:45:31.281Z,99.90
2019-04-26T21:48:02.643Z,99.90
2019-04-26T21:50:35.737Z,99.90
2019-04-26T21:53:05.081Z,99.90
2019-04-26T21:55:35.241Z,99.90
2019-04-26T21:57:58.257Z,99.90
2019-04-26T22:00:44.513Z,99.90
2019-04-26T22:03:15.912Z,99.90
2019-04-26T22:05:43.960Z,99.90
2019-04-26T22:08:12.931Z,99.90
2019-04-26T22:10:43.750Z,99.90
2019-04-26T22:13:14.285Z,99.90
2019-04-26T22:16:30.679Z,99.90
2019-04-26T22:18:50.529Z,99.90
2019-04-26T22:21:48.012Z,99.90
2019-04-26T22:24:23.289Z,99.90
2019-04-26T22:26:50.859Z,99.90
2019-04-26T22:29:18.659Z,99.90
2019-04-26T22:31:46.495Z,99.90
2019-04-26T22:34:14.187Z,99.90
2019-04-26T22:36:43.722Z,99.90
2019-04-26T22:39:16.004Z,99.90
2019-04-26T22:41:43.777Z,99.90
2019-04-26T22:44:17.383Z,99.90
2019-04-26T22:47:07.486Z,99.90
2019-04-26T22:49:41.891Z,99.90
2019-04-26T22:52:06.296Z,99.90
2019-04-26T22:54:37.736Z,99.90
2019-04-26T22:57:08.218Z,99.90
2019-04-26T22:59:33.939Z,99.90
2019-04-26T23:02:03.386Z,99.90
2019-04-26T23:04:32.987Z,99.90
2019-04-26T23:07:03.304Z,99.90
2019-04-26T23:09:31.037Z,99.90
2019-04-26T23:12:06.288Z,99.90
2019-04-26T23:14:52.123Z,99.90
2019-04-26T23:17:49.869Z,99.90
2019-04-26T23:20:29.241Z,99.90
2019-04-26T23:22:55.559Z,99.90
2019-04-26T23:25:23.812Z,99.90
2019-04-26T23:27:56.719Z,99.90
2019-04-26T23:30:21.063Z,99.90
2019-04-26T23:32:52.161Z,99.90
2019-04-26T23:35:18.272Z,99.90
2019-04-26T23:37:45.967Z,99.90
2019-04-26T23:40:13.648Z,99.90
2019-04-26T23:42:41.324Z,99.90
2019-04-26T23:45:10.781Z,99.90
2019-04-26T23:47:39.071Z,99.90
2019-04-26T23:50:06.954Z,99.90
2019-04-26T23:52:34.638Z,99.90
2019-04-26T23:55:05.544Z,99.90
2019-04-26T23:57:35.991Z,99.90
